Time;durP1;ratioP1;P1;durP2;ratioP2;P2;SDS_P1;SDS_P2;PMS_P1;PMS_P2;Temp;Humidity;BMP_temperature;BMP_pressure;BME280_temperature;BME280_humidity;BME280_pressure;Samples;Min_cycle;Max_cycle;Signal;HPM_P1;HPM_P2
2023/03/28 00:00:21;;;;;;;7.22;1.27;;;2.10;99.90;;;;;;5103126;28;20039;-84
2023/03/28 00:02:46;;;;;;;6.85;1.20;;;2.10;99.90;;;;;;5091788;28;20058;-84
2023/03/28 00:05:12;;;;;;;6.90;1.30;;;2.10;99.90;;;;;;5105147;28;20039;-85
2023/03/28 00:07:38;;;;;;;11.93;1.60;;;2.10;99.90;;;;;;5084935;28;20571;-85
2023/03/28 00:10:06;;;;;;;7.27;1.30;;;2.10;99.90;;;;;;5104055;28;20523;-84
2023/03/28 00:12:31;;;;;;;8.48;1.10;;;2.10;99.90;;;;;;5103995;28;20063;-84
2023/03/28 00:14:57;;;;;;;4.23;0.90;;;2.00;99.90;;;;;;5107083;28;20451;-84
2023/03/28 00:17:23;;;;;;;9.40;1.23;;;2.10;99.90;;;;;;5102631;28;20084;-84
2023/03/28 00:19:52;;;;;;;7.80;1.50;;;2.00;99.90;;;;;;5109240;28;20411;-84
2023/03/28 00:22:19;;;;;;;8.70;1.90;;;1.90;99.90;;;;;;5105891;28;20078;-84
2023/03/28 00:24:47;;;;;;;11.83;1.40;;;1.90;99.90;;;;;;5109833;28;20039;-84
2023/03/28 00:27:14;;;;;;;7.30;1.40;;;1.80;99.90;;;;;;5108361;28;20055;-84
2023/03/28 00:29:40;;;;;;;9.10;1.13;;;1.80;99.90;;;;;;5089990;28;20040;-84
2023/03/28 00:32:06;;;;;;;10.20;1.50;;;1.70;99.90;;;;;;5110043;28;20036;-84
2023/03/28 00:34:31;;;;;;;5.93;1.55;;;1.70;99.90;;;;;;5137207;27;20035;-85
2023/03/28 00:36:57;;;;;;;7.57;1.30;;;1.60;99.90;;;;;;5131041;27;20032;-84
2023/03/28 00:39:25;;;;;;;9.20;1.67;;;1.60;99.90;;;;;;5092487;28;20096;-84
2023/03/28 00:41:51;;;;;;;8.30;1.30;;;1.50;99.90;;;;;;5106286;28;20028;-84
2023/03/28 00:44:56;;;;;;;6.20;1.27;;;1.50;99.90;;;;;;5096972;28;20039;-84
2023/03/28 00:47:35;;;;;;;9.77;1.63;;;1.50;99.90;;;;;;4999513;28;20045;-84
2023/03/28 00:50:01;;;;;;;9.77;1.43;;;1.50;99.90;;;;;;5016438;28;20097;-84
2023/03/28 00:52:29;;;;;;;6.27;1.67;;;1.40;99.90;;;;;;5095043;27;20055;-84
2023/03/28 00:54:57;;;;;;;7.27;1.13;;;1.40;99.90;;;;;;5106488;28;20108;-84
2023/03/28 00:57:25;;;;;;;8.80;1.23;;;1.40;99.90;;;;;;5093609;28;20070;-84
2023/03/28 00:59:51;;;;;;;4.77;1.20;;;1.40;99.90;;;;;;5106732;28;20082;-84
2023/03/28 01:02:18;;;;;;;10.07;1.53;;;1.30;99.90;;;;;;5113802;28;20050;-84
2023/03/28 01:04:56;;;;;;;6.60;1.53;;;1.30;99.90;;;;;;5095151;28;20039;-84
2023/03/28 01:07:23;;;;;;;10.17;1.80;;;1.30;99.90;;;;;;5113581;28;20114;-84
2023/03/28 01:09:50;;;;;;;8.67;1.63;;;1.20;99.90;;;;;;5094915;28;20039;-84
2023/03/28 01:12:18;;;;;;;8.37;1.57;;;1.20;99.90;;;;;;5105632;28;20542;-84
2023/03/28 01:14:45;;;;;;;10.43;1.30;;;1.20;99.90;;;;;;5106665;28;20526;-84
2023/03/28 01:17:11;;;;;;;8.50;1.50;;;1.20;99.90;;;;;;5110395;28;20040;-84
2023/03/28 01:20:12;;;;;;;7.03;1.40;;;1.20;99.90;;;;;;5110085;28;20145;-84
2023/03/28 01:22:49;;;;;;;5.80;1.33;;;1.10;99.90;;;;;;5106129;28;20036;-83
2023/03/28 01:25:37;;;;;;;8.93;1.40;;;1.10;99.90;;;;;;5110268;28;20036;-84
2023/03/28 01:28:29;;;;;;;9.73;1.43;;;1.10;99.90;;;;;;5120202;27;20071;-85
2023/03/28 01:31:01;;;;;;;7.03;1.20;;;1.10;99.90;;;;;;5127869;27;20465;-84
2023/03/28 01:33:50;;;;;;;8.20;1.13;;;1.00;99.90;;;;;;5107929;28;20415;-84
2023/03/28 01:36:46;;;;;;;8.60;1.90;;;1.00;99.90;;;;;;5106887;28;20071;-84
2023/03/28 01:39:43;;;;;;;7.70;1.20;;;1.00;99.90;;;;;;5102458;28;20036;-84
2023/03/28 01:42:27;;;;;;;10.43;1.60;;;1.00;99.90;;;;;;5091111;28;20044;-84
2023/03/28 01:45:18;;;;;;;7.75;1.20;;;0.90;99.90;;;;;;5106557;28;20032;-84
2023/03/28 01:48:20;;;;;;;8.17;1.40;;;0.90;99.90;;;;;;5088415;28;20028;-83
2023/03/28 01:51:13;;;;;;;6.13;1.10;;;0.90;99.90;;;;;;5088162;28;20410;-83
2023/03/28 01:54:07;;;;;;;5.43;1.30;;;0.90;99.90;;;;;;5066680;28;20054;-84
2023/03/28 01:56:43;;;;;;;11.90;1.60;;;0.80;99.90;;;;;;5088093;28;20044;-84
2023/03/28 01:59:41;;;;;;;7.17;1.37;;;0.80;99.90;;;;;;5088518;28;20085;-83
2023/03/28 02:02:18;;;;;;;8.23;1.23;;;0.80;99.90;;;;;;5111637;28;20054;-83
2023/03/28 02:04:45;;;;;;;4.70;1.40;;;0.80;99.90;;;;;;5093943;28;20043;-83
2023/03/28 02:07:12;;;;;;;14.57;1.30;;;0.80;99.90;;;;;;5090538;28;20414;-83
2023/03/28 02:09:42;;;;;;;4.67;1.10;;;0.80;99.90;;;;;;5107022;28;20111;-83
2023/03/28 02:12:15;;;;;;;10.33;1.70;;;0.80;99.90;;;;;;5110891;28;20380;-83
2023/03/28 02:14:42;;;;;;;7.47;1.50;;;0.80;99.90;;;;;;5095323;28;20132;-83
2023/03/28 02:17:14;;;;;;;13.07;1.70;;;0.80;99.90;;;;;;5094785;28;20499;-83
2023/03/28 02:19:45;;;;;;;7.77;1.40;;;0.80;99.90;;;;;;5106963;28;20081;-84
2023/03/28 02:22:39;;;;;;;9.50;1.87;;;0.80;99.90;;;;;;5106926;28;20251;-83
2023/03/28 02:25:05;;;;;;;7.60;1.47;;;0.80;99.90;;;;;;5087765;28;20028;-83
2023/03/28 02:27:33;;;;;;;8.17;1.40;;;0.80;99.90;;;;;;5107517;28;20036;-83
2023/03/28 02:30:00;;;;;;;9.00;1.37;;;0.80;99.90;;;;;;5089841;28;20411;-83
2023/03/28 02:32:25;;;;;;;5.53;1.30;;;0.80;99.90;;;;;;5111305;28;20533;-83
2023/03/28 02:34:53;;;;;;;9.03;1.33;;;0.80;99.90;;;;;;5110602;28;20039;-83
2023/03/28 02:37:28;;;;;;;5.30;1.30;;;0.80;99.90;;;;;;5106175;28;20044;-83
2023/03/28 02:40:17;;;;;;;11.67;1.50;;;0.80;99.90;;;;;;5086920;28;20054;-83
2023/03/28 02:43:04;;;;;;;5.20;1.23;;;0.70;99.90;;;;;;5089487;28;20492;-83
2023/03/28 02:46:06;;;;;;;6.57;1.30;;;0.80;99.90;;;;;;5087108;28;20135;-83
2023/03/28 02:49:02;;;;;;;6.33;1.67;;;0.80;99.90;;;;;;5107765;28;20046;-83
2023/03/28 02:52:03;;;;;;;9.47;1.80;;;0.70;99.90;;;;;;5090399;28;20040;-83
2023/03/28 02:54:36;;;;;;;7.30;1.50;;;0.70;99.90;;;;;;5097994;28;20498;-83
2023/03/28 02:57:17;;;;;;;8.13;1.90;;;0.70;99.90;;;;;;5103297;28;20071;-83
2023/03/28 02:59:45;;;;;;;7.73;1.60;;;0.70;99.90;;;;;;5103876;28;20105;-83
2023/03/28 03:02:16;;;;;;;14.33;2.50;;;0.70;99.90;;;;;;5111375;28;20042;-83
2023/03/28 03:04:43;;;;;;;9.57;1.63;;;0.70;99.90;;;;;;5107134;28;20032;-83
2023/03/28 03:07:08;;;;;;;10.37;1.83;;;0.70;99.90;;;;;;5109118;28;20081;-83
2023/03/28 03:09:34;;;;;;;14.07;2.17;;;0.60;99.90;;;;;;5107719;28;20039;-83
2023/03/28 03:12:00;;;;;;;8.37;1.70;;;0.60;99.90;;;;;;5103729;28;20028;-83
2023/03/28 03:14:26;;;;;;;10.27;1.90;;;0.60;99.90;;;;;;5107750;28;20043;-83
2023/03/28 03:16:51;;;;;;;12.83;2.50;;;0.60;99.90;;;;;;5105212;28;20067;-83
2023/03/28 03:19:18;;;;;;;10.67;1.90;;;0.60;99.90;;;;;;5105102;28;20074;-83
2023/03/28 03:21:43;;;;;;;10.27;1.60;;;0.60;99.90;;;;;;5086291;28;20132;-84
2023/03/28 03:24:09;;;;;;;10.30;1.50;;;0.60;99.90;;;;;;5093985;28;20639;-83
2023/03/28 03:26:35;;;;;;;10.43;2.00;;;0.60;99.90;;;;;;5104138;28;20032;-83
2023/03/28 03:29:01;;;;;;;8.63;1.63;;;0.60;99.90;;;;;;5108966;28;20494;-83
2023/03/28 03:31:27;;;;;;;14.13;2.00;;;0.60;99.90;;;;;;5106642;28;20051;-83
2023/03/28 03:33:53;;;;;;;13.00;2.47;;;0.60;99.90;;;;;;5102806;28;20043;-83
2023/03/28 03:36:19;;;;;;;8.27;1.70;;;0.60;99.90;;;;;;5110568;28;20376;-83
2023/03/28 03:38:46;;;;;;;8.53;2.33;;;0.60;99.90;;;;;;5087667;28;20518;-83
2023/03/28 03:41:11;;;;;;;8.03;1.53;;;0.60;99.90;;;;;;5103488;28;20506;-83
2023/03/28 03:43:37;;;;;;;8.27;1.90;;;0.60;99.90;;;;;;5088235;28;20042;-83
2023/03/28 03:46:02;;;;;;;9.83;1.70;;;0.60;99.90;;;;;;5105609;28;20047;-83
2023/03/28 03:48:28;;;;;;;12.07;1.97;;;0.60;99.90;;;;;;5104624;28;20055;-83
2023/03/28 03:50:53;;;;;;;9.70;1.97;;;0.50;99.90;;;;;;5086919;28;20067;-83
2023/03/28 03:53:19;;;;;;;8.17;1.17;;;0.50;99.90;;;;;;5109029;28;20040;-83
2023/03/28 03:55:45;;;;;;;14.27;1.50;;;0.50;99.90;;;;;;5102670;28;20048;-83
2023/03/28 03:58:10;;;;;;;7.87;1.50;;;0.50;99.90;;;;;;5107266;28;20032;-83
2023/03/28 04:00:36;;;;;;;8.90;1.50;;;0.50;99.90;;;;;;5107316;28;20032;-83
2023/03/28 04:03:02;;;;;;;8.87;1.60;;;0.50;99.90;;;;;;5103152;28;20111;-83
2023/03/28 04:05:27;;;;;;;8.00;1.73;;;0.40;99.90;;;;;;5106628;28;20436;-83
2023/03/28 04:07:53;;;;;;;11.70;2.03;;;0.40;99.90;;;;;;5105519;28;20044;-83
2023/03/28 04:10:19;;;;;;;5.77;1.37;;;0.40;99.90;;;;;;5104684;28;20075;-83
2023/03/28 04:12:44;;;;;;;10.53;1.80;;;0.40;99.90;;;;;;5092613;28;20043;-82
2023/03/28 04:15:10;;;;;;;7.33;1.83;;;0.40;99.90;;;;;;5089934;28;20675;-83
2023/03/28 04:17:36;;;;;;;12.03;1.90;;;0.30;99.90;;;;;;5088436;28;20035;-82
2023/03/28 04:20:12;;;;;;;7.90;2.03;;;0.30;99.90;;;;;;5107775;28;20120;-82
2023/03/28 04:22:39;;;;;;;4.80;1.40;;;0.30;99.90;;;;;;5107541;28;20043;-83
2023/03/28 04:25:05;;;;;;;9.70;1.83;;;0.30;99.90;;;;;;5103361;28;20072;-82
2023/03/28 04:27:31;;;;;;;8.17;1.70;;;0.20;99.90;;;;;;5093183;28;20035;-83
2023/03/28 04:29:59;;;;;;;8.53;2.10;;;0.20;99.90;;;;;;5106349;28;20038;-83
2023/03/28 04:32:25;;;;;;;7.93;2.03;;;0.20;99.90;;;;;;5088555;28;20039;-83
2023/03/28 04:34:50;;;;;;;7.77;1.70;;;0.20;99.90;;;;;;5104076;28;20119;-82
2023/03/28 04:37:17;;;;;;;8.47;1.57;;;0.20;99.90;;;;;;5102189;28;20127;-82
2023/03/28 04:39:46;;;;;;;6.60;1.83;;;0.20;99.90;;;;;;5105467;28;20035;-82
2023/03/28 04:42:13;;;;;;;13.37;1.63;;;0.10;99.90;;;;;;5107481;28;20043;-82
2023/03/28 04:44:39;;;;;;;9.97;1.37;;;0.10;99.90;;;;;;5107161;28;20036;-82
2023/03/28 04:47:07;;;;;;;6.47;1.43;;;0.10;99.90;;;;;;5102286;28;20533;-82
2023/03/28 04:49:33;;;;;;;8.13;1.50;;;0.10;99.90;;;;;;5105001;28;20044;-82
2023/03/28 04:51:59;;;;;;;7.10;1.70;;;0.10;99.90;;;;;;5090890;28;20036;-82
2023/03/28 04:54:25;;;;;;;8.60;1.57;;;0.10;99.90;;;;;;5121718;28;20119;-82
2023/03/28 04:56:52;;;;;;;6.63;1.43;;;0.10;99.90;;;;;;5108019;28;20043;-83
2023/03/28 04:59:19;;;;;;;7.97;1.77;;;0.10;99.90;;;;;;5104244;28;20415;-82
2023/03/28 05:01:48;;;;;;;7.20;1.60;;;0.10;99.90;;;;;;5105332;28;20047;-82
2023/03/28 05:04:16;;;;;;;8.67;1.90;;;0.00;99.90;;;;;;5105214;28;20048;-82
2023/03/28 05:06:44;;;;;;;5.23;1.13;;;0.00;99.90;;;;;;5103811;28;20051;-82
2023/03/28 05:09:11;;;;;;;9.47;1.63;;;0.00;99.90;;;;;;5092166;28;20466;-82
2023/03/28 05:11:37;;;;;;;10.17;1.73;;;0.00;99.90;;;;;;5107686;28;20128;-82
2023/03/28 05:14:02;;;;;;;10.50;1.90;;;0.00;99.90;;;;;;5096951;28;20081;-82
2023/03/28 05:16:28;;;;;;;11.47;1.53;;;0.10;99.90;;;;;;5109157;28;20066;-81
2023/03/28 05:18:55;;;;;;;6.43;1.60;;;0.10;99.90;;;;;;5105625;28;20543;-82
2023/03/28 05:21:21;;;;;;;12.83;1.90;;;0.10;99.90;;;;;;5107220;28;20051;-81
2023/03/28 05:23:46;;;;;;;13.30;1.80;;;0.10;99.90;;;;;;5089733;28;20024;-82
2023/03/28 05:26:12;;;;;;;8.37;1.87;;;0.20;99.90;;;;;;5091235;28;20117;-82
2023/03/28 05:28:38;;;;;;;8.20;1.80;;;0.30;99.90;;;;;;5105846;28;20036;-81
2023/03/28 05:31:06;;;;;;;9.53;1.70;;;0.40;99.90;;;;;;5112546;28;20431;-82
2023/03/28 05:33:32;;;;;;;9.07;1.90;;;0.40;99.90;;;;;;5092402;28;20039;-82
2023/03/28 05:35:59;;;;;;;6.47;1.50;;;0.50;99.90;;;;;;5106831;28;20036;-82
2023/03/28 05:38:25;;;;;;;11.33;1.80;;;0.50;99.90;;;;;;5106180;28;20048;-82
2023/03/28 05:40:51;;;;;;;6.43;1.70;;;0.60;99.90;;;;;;5111048;28;20494;-82
2023/03/28 05:43:17;;;;;;;8.43;1.57;;;0.70;99.90;;;;;;5108684;28;20042;-82
2023/03/28 05:45:42;;;;;;;6.40;1.50;;;0.80;99.90;;;;;;5090622;28;20495;-83
2023/03/28 05:48:08;;;;;;;11.47;2.17;;;0.80;99.90;;;;;;5109284;28;20549;-82
2023/03/28 05:50:34;;;;;;;12.73;1.97;;;0.90;99.90;;;;;;5086982;28;20035;-83
2023/03/28 05:52:59;;;;;;;7.87;1.50;;;1.20;99.90;;;;;;5146119;27;20035;-83
2023/03/28 05:55:25;;;;;;;6.67;1.50;;;1.00;99.90;;;;;;5107382;28;20418;-83
2023/03/28 05:57:50;;;;;;;8.27;1.57;;;1.10;99.90;;;;;;5105791;28;20028;-83
2023/03/28 06:00:17;;;;;;;8.87;1.70;;;1.10;99.90;;;;;;5104986;28;20433;-83
2023/03/28 06:02:43;;;;;;;7.30;1.43;;;1.10;99.90;;;;;;5095481;28;20062;-83
2023/03/28 06:05:10;;;;;;;6.30;1.50;;;1.20;99.90;;;;;;5107583;28;20162;-83
2023/03/28 06:07:37;;;;;;;13.40;1.53;;;1.20;99.90;;;;;;5106631;28;20471;-83
2023/03/28 06:10:04;;;;;;;15.47;2.00;;;1.30;99.90;;;;;;5104323;28;20040;-83
2023/03/28 06:12:30;;;;;;;10.57;1.80;;;1.30;99.90;;;;;;5112513;28;20071;-83
2023/03/28 06:14:55;;;;;;;6.97;1.77;;;1.40;99.90;;;;;;5095091;28;20491;-84
2023/03/28 06:17:22;;;;;;;10.10;2.23;;;1.40;99.90;;;;;;5107849;28;20043;-84
2023/03/28 06:19:47;;;;;;;8.17;2.20;;;1.50;99.90;;;;;;5107418;28;20036;-85
2023/03/28 06:22:13;;;;;;;13.53;1.90;;;1.50;99.90;;;;;;5094212;28;20076;-84
2023/03/28 06:24:39;;;;;;;5.10;2.20;;;1.60;99.90;;;;;;5092150;28;20115;-85
2023/03/28 06:27:04;;;;;;;4.63;1.37;;;1.60;99.90;;;;;;5106866;28;20518;-84
2023/03/28 06:29:30;;;;;;;10.47;2.60;;;1.70;99.90;;;;;;5106629;28;20047;-85
2023/03/28 06:31:56;;;;;;;7.83;2.40;;;1.70;99.90;;;;;;5138360;27;20039;-84
2023/03/28 06:34:21;;;;;;;8.60;2.10;;;1.70;99.90;;;;;;5104573;28;20396;-86
2023/03/28 06:36:47;;;;;;;7.37;1.83;;;1.80;99.90;;;;;;5109417;28;20127;-85
2023/03/28 06:39:12;;;;;;;7.57;2.13;;;1.90;99.90;;;;;;5090151;28;20685;-85
2023/03/28 06:41:38;;;;;;;6.73;1.53;;;1.90;99.90;;;;;;5111437;28;20550;-84
2023/03/28 06:44:04;;;;;;;5.83;1.90;;;2.00;99.90;;;;;;5097476;28;20042;-84
2023/03/28 06:46:30;;;;;;;11.23;3.23;;;2.10;99.90;;;;;;5108016;28;20104;-85
2023/03/28 06:48:55;;;;;;;6.67;2.50;;;2.20;99.90;;;;;;5111210;28;20077;-85
2023/03/28 06:51:21;;;;;;;5.10;1.60;;;2.20;99.90;;;;;;5111637;28;20070;-84
2023/03/28 06:53:46;;;;;;;6.70;1.87;;;2.30;99.90;;;;;;5104094;28;20039;-84
2023/03/28 06:56:12;;;;;;;7.30;1.97;;;2.30;99.90;;;;;;5093047;28;20575;-84
2023/03/28 06:58:38;;;;;;;8.77;1.70;;;2.40;99.90;;;;;;5106655;28;20035;-84
2023/03/28 07:01:04;;;;;;;6.87;1.67;;;2.50;99.90;;;;;;5106128;28;20035;-85
2023/03/28 07:03:30;;;;;;;8.63;2.10;;;2.60;99.90;;;;;;5106823;28;20059;-85
2023/03/28 07:05:56;;;;;;;6.03;1.60;;;2.70;99.90;;;;;;5092362;28;20102;-85
2023/03/28 07:08:21;;;;;;;8.98;1.90;;;2.70;99.90;;;;;;5105778;28;20086;-84
2023/03/28 07:10:47;;;;;;;9.53;1.90;;;3.40;99.90;;;;;;5111366;28;20043;-85
2023/03/28 07:13:13;;;;;;;7.97;2.20;;;2.90;99.90;;;;;;5087553;28;20073;-85
2023/03/28 07:15:38;;;;;;;7.97;2.03;;;3.00;99.90;;;;;;5088876;28;20042;-84
2023/03/28 07:18:05;;;;;;;9.80;1.93;;;3.00;99.90;;;;;;5104856;28;20032;-85
2023/03/28 07:20:31;;;;;;;3.83;1.70;;;3.00;99.90;;;;;;5109740;28;20051;-85
2023/03/28 07:22:56;;;;;;;11.13;1.63;;;3.20;99.90;;;;;;5105479;28;20035;-85
2023/03/28 07:25:44;;;;;;;14.35;2.63;;;3.20;99.90;;;;;;5107539;28;20078;-85
2023/03/28 07:28:23;;;;;;;7.45;1.83;;;3.20;99.90;;;;;;5102173;28;20036;-86
2023/03/28 07:30:48;;;;;;;10.07;1.60;;;3.10;99.90;;;;;;5090755;28;20050;-86
2023/03/28 07:33:14;;;;;;;7.93;1.60;;;3.40;99.90;;;;;;5138670;27;20078;-85
2023/03/28 07:35:40;;;;;;;10.07;2.25;;;3.70;99.90;;;;;;5107690;28;20075;-86
2023/03/28 07:38:06;;;;;;;6.55;1.77;;;3.90;99.90;;;;;;5105959;28;20047;-86
2023/03/28 07:40:32;;;;;;;7.40;2.47;;;4.10;99.90;;;;;;5087802;28;20031;-85
2023/03/28 07:42:57;;;;;;;8.75;1.50;;;4.30;99.90;;;;;;5109022;28;20600;-85
2023/03/28 07:45:23;;;;;;;8.07;1.85;;;4.50;99.90;;;;;;5099643;28;20119;-85
2023/03/28 07:47:48;;;;;;;8.48;2.30;;;4.70;99.90;;;;;;5105718;28;20054;-86
2023/03/28 07:50:14;;;;;;;6.63;1.30;;;4.80;99.90;;;;;;5087012;28;20418;-85
2023/03/28 07:52:44;;;;;;;6.60;1.40;;;5.00;99.90;;;;;;5107498;28;20452;-85
2023/03/28 07:55:10;;;;;;;6.65;1.30;;;5.10;99.90;;;;;;5105621;28;20128;-86
2023/03/28 07:57:35;;;;;;;7.95;1.27;;;5.30;99.90;;;;;;5080596;28;20035;-86
2023/03/28 08:00:03;;;;;;;4.32;1.27;;;5.30;99.90;;;;;;5093026;28;20040;-85
2023/03/28 08:02:29;;;;;;;4.05;1.10;;;5.60;99.90;;;;;;5109071;28;20042;-85
2023/03/28 08:04:54;;;;;;;6.25;1.50;;;6.00;99.90;;;;;;5135954;27;20036;-86
2023/03/28 08:07:20;;;;;;;6.80;1.83;;;5.80;99.90;;;;;;5109987;28;20039;-85
2023/03/28 08:09:48;;;;;;;7.18;1.98;;;5.90;99.90;;;;;;5110264;28;20517;-85
2023/03/28 08:12:13;;;;;;;4.72;1.30;;;6.10;99.90;;;;;;5110742;28;20503;-86
2023/03/28 08:14:39;;;;;;;8.63;2.13;;;6.30;99.90;;;;;;5105968;28;20097;-85
2023/03/28 08:17:04;;;;;;;4.45;1.08;;;6.40;99.90;;;;;;5091513;28;20138;-85
2023/03/28 08:19:30;;;;;;;4.93;1.10;;;6.70;99.90;;;;;;5093299;28;20036;-86
2023/03/28 08:21:57;;;;;;;4.00;1.00;;;6.90;99.90;;;;;;5089319;28;20491;-85
2023/03/28 08:24:23;;;;;;;5.95;1.35;;;6.90;99.90;;;;;;5102520;28;20047;-84
2023/03/28 08:26:48;;;;;;;4.80;1.10;;;6.90;99.90;;;;;;5104842;28;20138;-85
2023/03/28 08:29:14;;;;;;;4.72;1.77;;;6.80;99.90;;;;;;5109952;28;20067;-85
2023/03/28 08:31:40;;;;;;;4.80;1.27;;;6.60;99.90;;;;;;5109409;28;20055;-85
2023/03/28 08:34:05;;;;;;;4.95;1.05;;;6.50;99.90;;;;;;5109935;28;20039;-86
2023/03/28 08:36:31;;;;;;;5.28;1.08;;;6.40;99.90;;;;;;5091161;28;20131;-85
2023/03/28 08:38:59;;;;;;;6.40;1.00;;;6.30;99.90;;;;;;5144219;27;20059;-85
2023/03/28 08:42:04;;;;;;;3.47;1.13;;;6.20;99.90;;;;;;5110222;28;20072;-85
2023/03/28 08:44:50;;;;;;;5.05;1.30;;;6.30;99.90;;;;;;5102944;28;20036;-85
2023/03/28 08:47:23;;;;;;;8.18;1.67;;;6.20;99.90;;;;;;5104933;28;20495;-84
2023/03/28 08:50:00;;;;;;;9.00;1.73;;;6.20;99.90;;;;;;5129216;27;20096;-85
2023/03/28 08:52:27;;;;;;;6.88;1.48;;;6.10;99.90;;;;;;5108850;28;20061;-84
2023/03/28 08:55:01;;;;;;;5.45;1.40;;;6.20;99.90;;;;;;5096446;28;20058;-85
2023/03/28 08:57:30;;;;;;;4.93;1.30;;;6.10;99.90;;;;;;5088462;28;20043;-85
2023/03/28 09:00:21;;;;;;;3.85;1.33;;;6.20;99.90;;;;;;5109157;28;20075;-85
2023/03/28 09:02:47;;;;;;;3.22;1.00;;;6.40;99.90;;;;;;5096577;28;20134;-85
2023/03/28 09:05:15;;;;;;;4.43;1.10;;;6.40;99.90;;;;;;5106901;28;20111;-85
2023/03/28 09:08:08;;;;;;;6.85;1.45;;;6.50;99.90;;;;;;5096048;28;20507;-85
2023/03/28 09:10:43;;;;;;;5.80;1.10;;;6.70;99.90;;;;;;5092883;28;20039;-84
2023/03/28 09:13:34;;;;;;;5.20;1.27;;;7.00;99.90;;;;;;5088183;28;20077;-85
2023/03/28 09:16:05;;;;;;;5.70;1.15;;;7.10;99.90;;;;;;5105589;28;20502;-85
2023/03/28 09:18:53;;;;;;;3.90;1.02;;;7.20;99.90;;;;;;5107233;28;20040;-85
2023/03/28 09:21:42;;;;;;;4.53;0.98;;;7.40;99.90;;;;;;5084696;28;20044;-85
2023/03/28 09:24:28;;;;;;;7.75;1.10;;;7.70;99.90;;;;;;5102020;28;20151;-85
2023/03/28 09:27:01;;;;;;;3.92;0.88;;;7.90;99.90;;;;;;5108101;28;20477;-86
2023/03/28 09:29:28;;;;;;;3.25;0.90;;;7.90;99.90;;;;;;5108716;28;20036;-84
2023/03/28 09:32:29;;;;;;;5.40;1.00;;;7.70;99.90;;;;;;5129082;27;20036;-85
2023/03/28 09:34:55;;;;;;;4.18;1.10;;;7.50;99.90;;;;;;5093629;28;20039;-84
2023/03/28 09:37:32;;;;;;;2.53;0.43;;;7.40;99.90;;;;;;5107145;28;20046;-85
2023/03/28 09:40:15;;;;;;;2.63;0.73;;;7.30;99.90;;;;;;5093693;28;20142;-85
2023/03/28 09:42:50;;;;;;;4.25;1.00;;;7.30;99.90;;;;;;5090325;28;20423;-84
2023/03/28 09:45:32;;;;;;;7.75;1.30;;;7.10;99.90;;;;;;5112903;28;20027;-86
2023/03/28 09:47:58;;;;;;;2.22;0.75;;;7.00;99.90;;;;;;5092826;28;20046;-85
2023/03/28 09:50:24;;;;;;;2.88;0.75;;;7.00;99.90;;;;;;5105483;28;20471;-84
2023/03/28 09:52:50;;;;;;;6.38;1.10;;;6.90;99.90;;;;;;5128145;27;20046;-85
2023/03/28 09:55:22;;;;;;;3.05;1.20;;;7.00;99.90;;;;;;5106380;28;20036;-84
2023/03/28 09:58:00;;;;;;;5.95;1.63;;;6.90;99.90;;;;;;5105928;28;20066;-84
2023/03/28 10:00:26;;;;;;;4.43;0.98;;;6.90;99.90;;;;;;5112832;28;20054;-84
2023/03/28 10:02:52;;;;;;;7.53;1.25;;;7.00;99.90;;;;;;5112443;28;20036;-84
2023/03/28 10:05:32;;;;;;;3.40;2.10;;;7.10;99.90;;;;;;5107594;28;20063;-84
2023/03/28 10:08:03;;;;;;;7.93;1.45;;;7.20;99.90;;;;;;5106235;28;20028;-85
2023/03/28 10:10:29;;;;;;;4.75;1.00;;;7.40;99.90;;;;;;5112329;28;20032;-85
2023/03/28 10:13:01;;;;;;;3.75;0.90;;;7.40;99.90;;;;;;5095245;28;20059;-84
2023/03/28 10:15:38;;;;;;;3.85;1.30;;;7.40;99.90;;;;;;5112375;28;20437;-84
2023/03/28 10:18:04;;;;;;;5.43;1.10;;;7.50;99.90;;;;;;5103346;28;20043;-85
2023/03/28 10:20:35;;;;;;;4.22;1.42;;;7.60;99.90;;;;;;5107946;28;20032;-85
2023/03/28 10:23:02;;;;;;;5.50;1.90;;;7.80;99.90;;;;;;5094774;28;20512;-85
2023/03/28 10:25:41;;;;;;;3.05;1.10;;;7.80;99.90;;;;;;5105023;28;20120;-84
2023/03/28 10:28:13;;;;;;;3.65;1.17;;;7.80;99.90;;;;;;5105796;28;20410;-84
2023/03/28 10:30:40;;;;;;;7.57;1.67;;;7.80;99.90;;;;;;5108111;28;20077;-85
2023/03/28 10:33:15;;;;;;;4.78;1.50;;;7.90;99.90;;;;;;5107355;28;20040;-84
2023/03/28 10:35:52;;;;;;;3.38;1.02;;;8.00;99.90;;;;;;5105427;28;20523;-85
2023/03/28 10:38:20;;;;;;;5.30;1.23;;;7.80;99.90;;;;;;5106433;28;20104;-84
2023/03/28 10:40:59;;;;;;;4.45;1.58;;;7.80;99.90;;;;;;5109428;28;20032;-85
2023/03/28 10:43:32;;;;;;;3.15;1.25;;;7.80;99.90;;;;;;5091042;28;20032;-84
2023/03/28 10:46:01;;;;;;;3.63;1.42;;;7.70;99.90;;;;;;5093885;28;20039;-84
2023/03/28 10:48:30;;;;;;;5.30;1.58;;;7.60;99.90;;;;;;5111941;28;20043;-85
2023/03/28 10:50:59;;;;;;;4.03;1.20;;;7.60;99.90;;;;;;5111218;28;20043;-84
2023/03/28 10:54:12;;;;;;;4.65;1.20;;;7.70;99.90;;;;;;5094337;28;20114;-85
2023/03/28 10:57:13;;;;;;;6.32;1.80;;;7.60;99.90;;;;;;5090807;28;20118;-85
2023/03/28 11:00:05;;;;;;;6.47;1.40;;;7.70;99.90;;;;;;5091233;28;20036;-84
2023/03/28 11:02:52;;;;;;;3.97;1.60;;;7.70;99.90;;;;;;5107067;28;20044;-85
2023/03/28 11:05:53;;;;;;;4.97;1.60;;;7.80;99.90;;;;;;5104036;28;20533;-85
2023/03/28 11:08:48;;;;;;;6.32;1.98;;;7.80;99.90;;;;;;5105163;28;20070;-84
2023/03/28 11:11:17;;;;;;;5.32;1.60;;;7.80;99.90;;;;;;5104111;28;20081;-85
2023/03/28 11:14:24;;;;;;;5.05;2.00;;;7.90;99.90;;;;;;5094065;28;20061;-84
2023/03/28 11:17:22;;;;;;;6.18;2.03;;;8.00;99.90;;;;;;5052280;28;20037;-85
2023/03/28 11:20:17;;;;;;;4.80;1.60;;;8.00;99.90;;;;;;5104471;28;20036;-85
2023/03/28 11:23:01;;;;;;;5.72;1.77;;;8.20;99.90;;;;;;5104631;28;20044;-84
2023/03/28 11:25:55;;;;;;;4.45;1.63;;;8.20;99.90;;;;;;5105856;28;20074;-84
2023/03/28 11:28:46;;;;;;;5.00;1.73;;;8.20;99.90;;;;;;5104971;28;20498;-84
2023/03/28 11:31:16;;;;;;;7.93;2.35;;;8.30;99.90;;;;;;5102267;28;20550;-84
2023/03/28 11:34:18;;;;;;;4.78;1.55;;;8.40;99.90;;;;;;5108060;28;20031;-85
2023/03/28 11:36:52;;;;;;;4.75;1.65;;;8.60;99.90;;;;;;5089982;28;20043;-83
2023/03/28 11:39:32;;;;;;;5.20;1.88;;;8.90;99.90;;;;;;5110921;28;20050;-85
2023/03/28 11:42:02;;;;;;;3.85;1.90;;;9.20;99.90;;;;;;5110784;28;20043;-85
2023/03/28 11:44:32;;;;;;;4.97;2.38;;;9.40;99.90;;;;;;5093695;28;20410;-84
2023/03/28 11:47:17;;;;;;;4.60;2.08;;;9.50;99.90;;;;;;5104883;28;20040;-84
2023/03/28 11:50:00;;;;;;;5.28;2.10;;;9.50;99.90;;;;;;5093521;28;20392;-85
2023/03/28 11:52:31;;;;;;;3.33;1.98;;;9.60;99.90;;;;;;5110683;28;20043;-84
2023/03/28 11:55:11;;;;;;;4.65;1.65;;;9.60;99.90;;;;;;5093046;28;20050;-84
2023/03/28 11:58:02;;;;;;;5.10;1.88;;;9.70;99.90;;;;;;5105488;28;20044;-84
2023/03/28 12:00:37;;;;;;;6.75;2.50;;;9.80;99.90;;;;;;5107219;28;20044;-85
2023/03/28 12:03:30;;;;;;;5.00;1.95;;;9.80;99.90;;;;;;5104358;28;20094;-85
2023/03/28 12:06:21;;;;;;;4.20;2.08;;;9.60;99.90;;;;;;5090524;28;20031;-84
2023/03/28 12:09:01;;;;;;;6.88;2.40;;;9.80;99.90;;;;;;5108366;28;20036;-84
2023/03/28 12:11:38;;;;;;;6.25;2.17;;;9.90;99.90;;;;;;5102661;28;20431;-84
2023/03/28 12:14:43;;;;;;;5.32;2.20;;;10.10;99.90;;;;;;5101984;28;20499;-85
2023/03/28 12:17:33;;;;;;;3.38;2.00;;;9.90;99.90;;;;;;5048852;28;20083;-86
2023/03/28 12:19:59;;;;;;;5.53;2.03;;;10.20;99.90;;;;;;5086629;28;20078;-86
2023/03/28 12:22:35;;;;;;;5.10;2.03;;;10.50;99.90;;;;;;5097232;28;20430;-85
2023/03/28 12:25:06;;;;;;;4.63;1.88;;;10.60;99.90;;;;;;5112867;28;20161;-86
2023/03/28 12:27:40;;;;;;;5.68;2.10;;;10.60;99.90;;;;;;5110032;28;20160;-85
2023/03/28 12:30:20;;;;;;;4.93;2.13;;;10.30;99.90;;;;;;5107352;28;20044;-85
2023/03/28 12:33:22;;;;;;;5.85;2.20;;;10.40;99.90;;;;;;5092468;28;20039;-85
2023/03/28 12:36:11;;;;;;;6.00;2.05;;;10.40;99.90;;;;;;5103955;28;20044;-85
2023/03/28 12:38:49;;;;;;;5.13;1.83;;;10.40;99.90;;;;;;5091697;28;20395;-85
2023/03/28 12:41:19;;;;;;;5.40;2.55;;;10.40;99.90;;;;;;5082847;28;20037;-84
2023/03/28 12:43:47;;;;;;;3.97;1.83;;;10.20;99.90;;;;;;5107364;28;20139;-85
2023/03/28 12:46:16;;;;;;;5.22;1.90;;;10.30;99.90;;;;;;5106676;28;20137;-84
2023/03/28 12:48:55;;;;;;;4.75;2.15;;;10.50;98.70;;;;;;5110059;28;20028;-86
2023/03/28 12:51:36;;;;;;;5.28;1.85;;;10.60;99.90;;;;;;5106243;28;20517;-85
2023/03/28 12:54:06;;;;;;;4.68;2.20;;;10.30;95.50;;;;;;5094430;28;20097;-85
2023/03/28 12:56:32;;;;;;;4.88;2.00;;;10.30;97.30;;;;;;5106418;28;20487;-85
2023/03/28 12:58:58;;;;;;;3.60;2.10;;;10.20;98.60;;;;;;5086745;28;20051;-85
2023/03/28 13:01:35;;;;;;;5.55;2.17;;;10.00;98.70;;;;;;5108931;28;20045;-84
2023/03/28 13:04:21;;;;;;;10.15;2.45;;;10.10;99.80;;;;;;5105414;28;20035;-84
2023/03/28 13:07:08;;;;;;;5.45;1.83;;;10.10;99.50;;;;;;5109961;28;20360;-84
2023/03/28 13:09:53;;;;;;;4.60;2.08;;;10.10;99.30;;;;;;5109368;28;20516;-84
2023/03/28 13:12:29;;;;;;;4.80;2.35;;;10.40;99.90;;;;;;5108447;28;20035;-84
2023/03/28 13:15:14;;;;;;;6.57;2.47;;;10.50;98.80;;;;;;5104709;28;20040;-85
2023/03/28 13:18:07;;;;;;;4.78;2.20;;;10.40;99.90;;;;;;5089963;28;20044;-84
2023/03/28 13:20:32;;;;;;;5.75;2.10;;;10.60;98.20;;;;;;5088097;28;20051;-84
2023/03/28 13:23:05;;;;;;;6.05;2.47;;;10.90;98.70;;;;;;5109058;28;20518;-85